createdAt,value
2018-11-07T00:00:48.463Z,14.53
2018-11-07T00:02:23.300Z,17.00
2018-11-07T00:03:58.235Z,16.77
2018-11-07T00:05:33.128Z,13.23
2018-11-07T00:07:08.037Z,14.33
2018-11-07T00:08:42.967Z,12.03
2018-11-07T00:10:17.852Z,14.37
2018-11-07T00:11:52.847Z,22.87
2018-11-07T00:13:27.710Z,15.30
2018-11-07T00:15:02.637Z,13.77
2018-11-07T00:16:37.541Z,13.63
2018-11-07T00:18:12.419Z,13.93
2018-11-07T00:19:47.389Z,16.03
2018-11-07T00:21:22.324Z,14.77
2018-11-07T00:22:57.284Z,16.20
2018-11-07T00:24:32.149Z,13.57
2018-11-07T00:26:07.094Z,13.10
2018-11-07T00:27:42.150Z,14.13
2018-11-07T00:29:17.140Z,14.87
2018-11-07T00:30:52.059Z,16.67
2018-11-07T00:32:26.919Z,13.07
2018-11-07T00:34:01.833Z,18.20
2018-11-07T00:35:36.693Z,14.07
2018-11-07T00:37:11.619Z,12.77
2018-11-07T00:38:46.506Z,14.17
2018-11-07T00:40:21.407Z,13.23
2018-11-07T00:41:56.385Z,15.27
2018-11-07T00:43:31.286Z,15.57
2018-11-07T00:45:07.867Z,13.23
2018-11-07T00:46:42.742Z,14.63
2018-11-07T00:48:17.651Z,14.87
2018-11-07T00:49:52.600Z,19.17
2018-11-07T00:51:27.558Z,13.83
2018-11-07T00:53:02.530Z,15.97
2018-11-07T00:54:37.758Z,20.63
2018-11-07T00:56:12.626Z,15.10
2018-11-07T00:57:47.655Z,17.27
2018-11-07T00:59:22.499Z,16.13
2018-11-07T01:00:57.467Z,15.87
2018-11-07T01:02:32.517Z,18.20
2018-11-07T01:04:07.463Z,15.53
2018-11-07T01:05:42.362Z,14.23
2018-11-07T01:07:17.231Z,13.87
2018-11-07T01:08:52.109Z,15.57
2018-11-07T01:10:27.103Z,16.63
2018-11-07T01:12:02.036Z,16.10
2018-11-07T01:13:37.478Z,15.20
2018-11-07T01:15:13.057Z,19.23
2018-11-07T01:16:48.024Z,14.93
2018-11-07T01:18:22.849Z,16.63
2018-11-07T01:19:57.822Z,16.27
2018-11-07T01:21:32.742Z,16.77
2018-11-07T01:23:07.752Z,16.43
2018-11-07T01:24:42.909Z,14.20
2018-11-07T01:26:17.773Z,15.23
2018-11-07T01:27:52.648Z,16.40
2018-11-07T01:29:27.563Z,19.37
2018-11-07T01:31:02.535Z,16.30
2018-11-07T01:32:37.524Z,17.37
2018-11-07T01:34:12.374Z,16.60
2018-11-07T01:35:47.284Z,15.67
2018-11-07T01:37:22.249Z,17.17
2018-11-07T01:38:57.242Z,19.73
2018-11-07T01:40:32.139Z,17.47
2018-11-07T01:42:07.099Z,14.17
2018-11-07T01:43:43.092Z,16.57
2018-11-07T01:45:17.998Z,17.30
2018-11-07T01:46:52.925Z,16.97
2018-11-07T01:48:27.802Z,21.07
2018-11-07T01:50:02.740Z,13.30
2018-11-07T01:51:37.755Z,14.80
2018-11-07T01:53:12.681Z,15.30
2018-11-07T01:54:47.563Z,15.30
2018-11-07T01:56:22.644Z,17.23
2018-11-07T01:57:57.557Z,14.13
2018-11-07T01:59:32.416Z,13.70
2018-11-07T02:01:07.690Z,14.83
2018-11-07T02:02:43.768Z,15.37
2018-11-07T02:04:19.111Z,15.03
2018-11-07T02:05:54.019Z,17.60
2018-11-07T02:07:28.980Z,15.60
2018-11-07T02:09:04.159Z,17.00
2018-11-07T02:10:39.112Z,13.07
2018-11-07T02:12:14.036Z,16.17
2018-11-07T02:13:48.936Z,11.93
2018-11-07T02:15:24.206Z,13.67
2018-11-07T02:16:59.085Z,14.50
2018-11-07T02:18:33.963Z,13.60
2018-11-07T02:20:10.006Z,13.47
2018-11-07T02:21:44.965Z,11.83
2018-11-07T02:23:19.827Z,16.27
2018-11-07T02:24:54.701Z,12.63
2018-11-07T02:26:29.682Z,14.43
2018-11-07T02:28:04.472Z,13.03
2018-11-07T02:29:39.347Z,16.87
2018-11-07T02:31:14.263Z,14.00
2018-11-07T02:32:49.127Z,16.27
2018-11-07T02:34:24.019Z,18.07
2018-11-07T02:35:58.908Z,17.77
2018-11-07T02:37:33.780Z,14.23
2018-11-07T02:39:10.704Z,12.13
2018-11-07T02:40:45.622Z,13.37
2018-11-07T02:42:20.499Z,14.73
2018-11-07T02:43:55.389Z,13.63
2018-11-07T02:45:30.479Z,15.23
2018-11-07T02:47:05.467Z,14.37
2018-11-07T02:48:40.344Z,19.83
2018-11-07T02:50:15.422Z,18.13
2018-11-07T02:51:50.350Z,16.17
2018-11-07T02:53:25.270Z,15.97
2018-11-07T02:55:00.101Z,16.63
2018-11-07T02:56:35.043Z,15.67
2018-11-07T02:58:09.935Z,16.07
2018-11-07T02:59:44.886Z,13.57
2018-11-07T03:01:19.931Z,16.67
2018-11-07T03:02:54.719Z,12.53
2018-11-07T03:04:29.646Z,13.13
2018-11-07T03:06:04.910Z,14.60
2018-11-07T03:07:40.392Z,15.37
2018-11-07T03:09:15.264Z,16.13
2018-11-07T03:10:50.168Z,15.13
2018-11-07T03:12:25.172Z,17.23
2018-11-07T03:14:00.179Z,14.73
2018-11-07T03:15:35.099Z,16.83
2018-11-07T03:17:09.982Z,17.70
2018-11-07T03:18:44.866Z,15.77
2018-11-07T03:20:19.784Z,16.10
2018-11-07T03:21:54.666Z,14.17
2018-11-07T03:23:29.567Z,11.73
2018-11-07T03:25:04.491Z,14.83
2018-11-07T03:26:39.423Z,16.50
2018-11-07T03:28:14.449Z,17.20
2018-11-07T03:29:49.395Z,19.47
2018-11-07T03:31:24.397Z,12.80
2018-11-07T03:32:59.318Z,13.40
2018-11-07T03:34:34.177Z,15.37
2018-11-07T03:36:09.090Z,14.93
2018-11-07T03:37:44.103Z,12.90
2018-11-07T03:39:19.013Z,19.47
2018-11-07T03:40:53.902Z,14.40
2018-11-07T03:42:28.817Z,11.70
2018-11-07T03:44:03.789Z,13.77
2018-11-07T03:45:44.233Z,13.70
2018-11-07T03:47:19.098Z,15.53
2018-11-07T03:48:53.955Z,13.63
2018-11-07T03:50:28.916Z,21.03
2018-11-07T03:52:03.861Z,14.20
2018-11-07T03:53:38.760Z,15.43
2018-11-07T03:55:13.710Z,17.97
2018-11-07T03:56:48.598Z,13.83
2018-11-07T03:58:23.567Z,17.07
2018-11-07T03:59:58.456Z,12.77
2018-11-07T04:01:33.435Z,16.37
2018-11-07T04:03:08.414Z,14.90
2018-11-07T04:04:43.340Z,15.93
2018-11-07T04:06:18.313Z,15.47
2018-11-07T04:07:53.213Z,14.30
2018-11-07T04:09:28.168Z,13.23
2018-11-07T04:11:03.368Z,13.97
2018-11-07T04:12:38.604Z,15.93
2018-11-07T04:14:13.579Z,16.30
2018-11-07T04:15:48.567Z,18.63
2018-11-07T04:17:23.461Z,12.03
2018-11-07T04:18:58.411Z,12.97
2018-11-07T04:20:33.347Z,15.67
2018-11-07T04:22:08.271Z,14.70
2018-11-07T04:23:47.482Z,13.43
2018-11-07T04:25:22.387Z,15.43
2018-11-07T04:26:57.339Z,14.63
2018-11-07T04:28:32.253Z,14.97
2018-11-07T04:30:09.288Z,13.50
2018-11-07T04:31:44.174Z,14.83
2018-11-07T04:33:19.082Z,15.43
2018-11-07T04:34:53.975Z,21.43
2018-11-07T04:36:28.854Z,16.53
2018-11-07T04:38:03.860Z,18.77
2018-11-07T04:39:38.791Z,14.97
2018-11-07T04:41:13.693Z,13.43
2018-11-07T04:42:48.711Z,17.17
2018-11-07T04:44:23.591Z,18.23
2018-11-07T04:45:58.470Z,11.27
2018-11-07T04:47:33.522Z,12.23
2018-11-07T04:49:08.438Z,17.07
2018-11-07T04:50:43.288Z,11.70
2018-11-07T04:52:18.191Z,12.77
2018-11-07T04:53:53.081Z,14.10
2018-11-07T04:55:27.935Z,14.77
2018-11-07T04:57:02.910Z,15.13
2018-11-07T04:58:37.976Z,16.67
2018-11-07T05:00:13.393Z,15.93
2018-11-07T05:01:48.335Z,15.43
2018-11-07T05:03:23.267Z,16.40
2018-11-07T05:04:58.305Z,11.33
2018-11-07T05:06:33.155Z,16.60
2018-11-07T05:08:08.065Z,16.10
2018-11-07T05:09:42.943Z,14.07
2018-11-07T05:11:20.820Z,13.77
2018-11-07T05:12:55.807Z,15.10
2018-11-07T05:14:30.654Z,67.10
2018-11-07T05:16:05.614Z,17.03
2018-11-07T05:17:40.567Z,14.73
2018-11-07T05:19:15.491Z,16.13
2018-11-07T05:20:50.629Z,12.60
2018-11-07T05:22:25.588Z,17.20
2018-11-07T05:24:00.524Z,14.90
2018-11-07T05:25:35.464Z,14.13
2018-11-07T05:27:10.359Z,19.97
2018-11-07T05:28:45.427Z,13.40
2018-11-07T05:30:20.378Z,21.87
2018-11-07T05:31:55.386Z,15.43
2018-11-07T05:33:30.275Z,14.97
2018-11-07T05:35:05.844Z,18.63
2018-11-07T05:36:40.772Z,14.50
2018-11-07T05:38:15.676Z,13.57
2018-11-07T05:39:50.530Z,13.37
2018-11-07T05:41:25.424Z,15.97
2018-11-07T05:43:00.342Z,16.20
2018-11-07T05:44:35.263Z,18.80
2018-11-07T05:46:10.187Z,21.77
2018-11-07T05:47:45.163Z,22.60
2018-11-07T05:49:20.033Z,15.10
2018-11-07T05:50:54.930Z,14.37
2018-11-07T05:52:29.968Z,13.07
2018-11-07T05:54:04.988Z,12.90
2018-11-07T05:55:39.888Z,22.47
2018-11-07T05:57:14.754Z,29.90
2018-11-07T05:58:49.723Z,19.63
2018-11-07T06:00:24.691Z,16.83
2018-11-07T06:01:59.594Z,16.50
2018-11-07T06:03:34.514Z,17.60
2018-11-07T06:05:10.544Z,20.83
2018-11-07T06:06:45.435Z,24.47
2018-11-07T06:08:20.300Z,14.77
2018-11-07T06:09:55.304Z,21.30
2018-11-07T06:11:30.163Z,21.27
2018-11-07T06:13:05.227Z,20.03
2018-11-07T06:14:40.107Z,16.37
2018-11-07T06:16:15.216Z,15.73
2018-11-07T06:17:50.059Z,15.60
2018-11-07T06:19:24.959Z,17.10
2018-11-07T06:22:41.024Z,19.47
2018-11-07T06:24:16.003Z,21.97
2018-11-07T06:25:50.870Z,16.70
2018-11-07T06:27:25.870Z,14.43
2018-11-07T06:29:00.784Z,15.77
2018-11-07T06:30:35.695Z,17.40
2018-11-07T06:32:10.573Z,12.53
2018-11-07T06:33:45.479Z,16.43
2018-11-07T06:35:20.459Z,14.40
2018-11-07T06:36:55.286Z,14.00
2018-11-07T06:38:30.266Z,17.23
2018-11-07T06:40:06.534Z,16.00
2018-11-07T06:41:41.436Z,25.20
2018-11-07T06:43:16.576Z,28.70
2018-11-07T06:44:51.815Z,19.43
2018-11-07T06:46:26.683Z,18.37
2018-11-07T06:48:01.589Z,34.53
2018-11-07T06:49:36.789Z,14.30
2018-11-07T06:51:11.663Z,15.10
2018-11-07T06:52:46.547Z,18.87
2018-11-07T06:54:21.568Z,16.80
2018-11-07T06:55:56.431Z,16.20
2018-11-07T06:57:31.317Z,18.13
2018-11-07T06:59:06.427Z,15.63
2018-11-07T07:00:43.102Z,23.43
2018-11-07T07:02:18.049Z,17.77
2018-11-07T07:03:53.119Z,30.23
2018-11-07T07:05:27.998Z,62.50
2018-11-07T07:07:02.913Z,36.37
2018-11-07T07:08:37.869Z,35.27
2018-11-07T07:10:14.287Z,29.23
2018-11-07T07:11:49.151Z,24.40
2018-11-07T07:13:24.082Z,19.83
2018-11-07T07:14:59.056Z,19.30
2018-11-07T07:16:33.984Z,25.03
2018-11-07T07:18:08.997Z,32.17
2018-11-07T07:19:43.867Z,18.47
2018-11-07T07:21:18.782Z,16.37
2018-11-07T07:22:53.703Z,20.57
2018-11-07T07:24:28.603Z,18.93
2018-11-07T07:26:03.747Z,26.73
2018-11-07T07:27:38.680Z,18.07
2018-11-07T07:29:13.560Z,16.93
2018-11-07T07:30:48.434Z,22.80
2018-11-07T07:32:23.319Z,26.17
2018-11-07T07:33:58.338Z,19.90
2018-11-07T07:35:33.287Z,20.03
2018-11-07T07:37:08.812Z,14.63
2018-11-07T07:38:43.963Z,21.30
2018-11-07T07:40:18.831Z,26.00
2018-11-07T07:41:53.695Z,18.57
2018-11-07T07:43:29.654Z,29.33
2018-11-07T07:45:05.159Z,32.30
2018-11-07T07:46:40.051Z,37.90
2018-11-07T07:48:14.995Z,28.53
2018-11-07T07:49:49.996Z,23.90
2018-11-07T07:51:24.913Z,15.87
2018-11-07T07:52:59.914Z,21.40
2018-11-07T07:54:34.760Z,15.47
2018-11-07T07:56:09.670Z,22.43
2018-11-07T07:57:44.807Z,20.97
2018-11-07T07:59:19.733Z,25.00
2018-11-07T08:00:54.648Z,26.07
2018-11-07T08:02:29.925Z,22.87
2018-11-07T08:04:05.034Z,23.67
2018-11-07T08:05:40.240Z,23.87
2018-11-07T08:07:15.379Z,20.33
2018-11-07T08:08:50.517Z,20.97
2018-11-07T08:10:25.426Z,21.00
2018-11-07T08:12:00.610Z,20.80
2018-11-07T08:13:35.690Z,21.87
2018-11-07T08:15:11.043Z,20.77
2018-11-07T08:16:46.107Z,28.87
2018-11-07T08:18:21.054Z,16.83
2018-11-07T08:19:56.056Z,18.40
2018-11-07T08:21:30.947Z,20.37
2018-11-07T08:23:06.198Z,20.53
2018-11-07T08:24:41.125Z,17.87
2018-11-07T08:26:16.049Z,16.27
2018-11-07T08:27:51.115Z,23.23
2018-11-07T08:29:26.076Z,16.93
2018-11-07T08:31:01.137Z,19.97
2018-11-07T08:32:36.028Z,18.27
2018-11-07T08:34:10.960Z,19.10
2018-11-07T08:35:45.862Z,15.77
2018-11-07T08:37:20.759Z,14.90
2018-11-07T08:38:55.939Z,19.53
2018-11-07T08:40:30.899Z,16.10
2018-11-07T08:42:10.847Z,20.73
2018-11-07T08:43:45.724Z,19.13
2018-11-07T08:45:20.611Z,16.83
2018-11-07T08:46:55.503Z,17.60
2018-11-07T08:48:30.402Z,15.17
2018-11-07T08:50:07.520Z,17.23
2018-11-07T08:51:42.390Z,18.90
2018-11-07T08:53:17.286Z,17.57
2018-11-07T08:54:52.257Z,17.07
2018-11-07T08:56:27.201Z,16.67
2018-11-07T08:58:02.111Z,16.03
2018-11-07T08:59:37.152Z,16.97
2018-11-07T09:01:12.151Z,13.93
2018-11-07T09:02:47.193Z,18.40
2018-11-07T09:04:22.124Z,16.50
2018-11-07T09:05:57.468Z,17.17
2018-11-07T09:07:32.372Z,17.17
2018-11-07T09:09:09.302Z,18.40
2018-11-07T09:10:44.233Z,16.57
2018-11-07T09:12:19.137Z,20.67
2018-11-07T09:13:54.047Z,19.37
2018-11-07T09:15:28.965Z,16.83
2018-11-07T09:17:03.974Z,19.80
2018-11-07T09:18:38.858Z,20.80
2018-11-07T09:20:17.923Z,18.50
2018-11-07T09:21:52.947Z,19.43
2018-11-07T09:23:27.831Z,16.97
2018-11-07T09:25:02.825Z,19.87
2018-11-07T09:26:37.851Z,18.53
2018-11-07T09:28:12.735Z,20.53
2018-11-07T09:29:47.922Z,20.10
2018-11-07T09:31:22.966Z,22.30
2018-11-07T09:32:57.873Z,20.23
2018-11-07T09:34:32.839Z,21.33
2018-11-07T09:36:07.822Z,17.07
2018-11-07T09:37:42.951Z,27.50
2018-11-07T09:39:17.851Z,27.57
2018-11-07T09:40:52.766Z,24.07
2018-11-07T09:42:27.688Z,24.00
2018-11-07T09:44:02.642Z,21.83
2018-11-07T09:45:37.658Z,20.67
2018-11-07T09:47:12.556Z,20.00
2018-11-07T09:48:47.505Z,18.40
2018-11-07T09:50:22.511Z,18.20
2018-11-07T09:51:57.410Z,21.03
2018-11-07T09:53:32.349Z,20.80
2018-11-07T09:55:08.785Z,16.97
2018-11-07T09:56:43.650Z,16.83
2018-11-07T09:58:18.643Z,20.67
2018-11-07T09:59:53.558Z,21.53
2018-11-07T10:01:28.527Z,21.00
2018-11-07T10:03:03.391Z,18.27
2018-11-07T10:04:38.399Z,22.93
2018-11-07T10:06:13.348Z,21.97
2018-11-07T10:07:48.259Z,19.43
2018-11-07T10:09:23.170Z,23.80
2018-11-07T10:10:58.074Z,19.17
2018-11-07T10:12:33.096Z,17.33
2018-11-07T10:14:08.869Z,21.60
2018-11-07T10:15:43.792Z,24.13
2018-11-07T10:17:18.723Z,19.03
2018-11-07T10:18:53.633Z,20.10
2018-11-07T10:20:28.588Z,22.30
2018-11-07T10:22:03.416Z,20.93
2018-11-07T10:23:38.468Z,24.77
2018-11-07T10:25:13.838Z,20.97
2018-11-07T10:26:48.907Z,24.20
2018-11-07T10:28:23.878Z,22.33
2018-11-07T10:29:59.046Z,22.67
2018-11-07T10:31:33.584Z,22.73
2018-11-07T10:33:08.468Z,20.53
2018-11-07T10:34:43.490Z,21.73
2018-11-07T10:36:18.328Z,24.37
2018-11-07T10:37:53.286Z,21.53
2018-11-07T10:39:28.100Z,24.50
2018-11-07T10:41:03.037Z,20.27
2018-11-07T10:42:37.933Z,20.63
2018-11-07T10:44:12.860Z,20.27
2018-11-07T10:45:47.848Z,25.93
2018-11-07T10:47:22.822Z,22.93
2018-11-07T10:48:57.724Z,23.03
2018-11-07T10:50:32.650Z,20.73
2018-11-07T10:52:07.924Z,20.70
2018-11-07T10:53:42.843Z,22.40
2018-11-07T10:55:18.175Z,21.00
2018-11-07T10:56:53.149Z,22.43
2018-11-07T10:58:28.039Z,22.87
2018-11-07T11:00:03.051Z,23.80
2018-11-07T11:01:43.328Z,18.57
2018-11-07T11:03:23.767Z,23.33
2018-11-07T11:04:58.726Z,19.00
2018-11-07T11:06:33.604Z,22.33
2018-11-07T11:08:08.865Z,24.27
2018-11-07T11:09:43.865Z,20.30
2018-11-07T11:11:18.869Z,23.70
2018-11-07T11:12:53.811Z,18.37
2018-11-07T11:14:28.700Z,21.33
2018-11-07T11:16:03.589Z,24.13
2018-11-07T11:17:38.523Z,25.37
2018-11-07T11:19:13.610Z,21.57
2018-11-07T11:20:48.547Z,18.10
2018-11-07T11:22:23.568Z,19.53
2018-11-07T11:23:58.499Z,18.40
2018-11-07T11:25:33.526Z,20.70
2018-11-07T11:27:08.705Z,19.93
2018-11-07T11:28:43.574Z,22.17
2018-11-07T11:30:18.550Z,21.83
2018-11-07T11:31:53.483Z,20.10
2018-11-07T11:33:28.374Z,22.07
2018-11-07T11:35:03.504Z,20.17
2018-11-07T11:36:38.472Z,20.93
2018-11-07T11:38:13.414Z,16.93
2018-11-07T11:39:48.399Z,24.73
2018-11-07T11:41:23.320Z,17.30
2018-11-07T11:42:58.325Z,17.57
2018-11-07T11:44:33.231Z,20.13
2018-11-07T11:46:08.178Z,17.60
2018-11-07T11:47:43.524Z,17.63
2018-11-07T11:49:18.698Z,20.60
2018-11-07T11:50:53.464Z,17.47
2018-11-07T11:52:28.466Z,18.67
2018-11-07T11:54:03.407Z,20.73
2018-11-07T11:55:38.479Z,14.90
2018-11-07T11:57:13.409Z,16.03
2018-11-07T11:58:48.360Z,18.87
2018-11-07T12:00:23.268Z,15.43
2018-11-07T12:01:58.491Z,17.00
2018-11-07T12:03:33.324Z,18.87
2018-11-07T12:05:09.895Z,17.57
2018-11-07T12:06:44.867Z,13.47
2018-11-07T12:08:20.176Z,15.57
2018-11-07T12:09:55.123Z,17.17
2018-11-07T12:11:30.012Z,17.03
2018-11-07T12:13:05.382Z,19.10
2018-11-07T12:14:40.294Z,19.80
2018-11-07T12:16:15.231Z,16.47
2018-11-07T12:17:50.237Z,19.47
2018-11-07T12:19:25.114Z,19.33
2018-11-07T12:21:00.109Z,19.27
2018-11-07T12:22:35.076Z,18.73
2018-11-07T12:24:10.025Z,16.63
2018-11-07T12:25:44.990Z,18.70
2018-11-07T12:27:19.910Z,18.70
2018-11-07T12:28:54.812Z,17.40
2018-11-07T12:30:29.674Z,15.77
2018-11-07T12:32:04.690Z,20.03
2018-11-07T12:33:39.632Z,17.50
2018-11-07T12:35:15.019Z,18.77
2018-11-07T12:36:50.048Z,17.80
2018-11-07T12:38:24.954Z,20.07
2018-11-07T12:39:59.860Z,15.90
2018-11-07T12:41:34.738Z,17.33
2018-11-07T12:43:09.785Z,25.10
2018-11-07T12:44:44.741Z,14.20
2018-11-07T12:46:19.683Z,20.97
2018-11-07T12:47:54.583Z,16.10
2018-11-07T12:49:29.740Z,19.10
2018-11-07T12:51:04.646Z,16.43
2018-11-07T12:52:39.748Z,18.77
2018-11-07T12:54:14.680Z,19.17
2018-11-07T12:55:50.663Z,18.50
2018-11-07T12:57:25.804Z,20.97
2018-11-07T12:59:00.687Z,21.23
2018-11-07T13:00:35.583Z,22.63
2018-11-07T13:02:10.503Z,21.23
2018-11-07T13:03:45.423Z,21.97
2018-11-07T13:05:21.158Z,25.07
2018-11-07T13:06:56.012Z,17.57
2018-11-07T13:08:30.996Z,24.83
2018-11-07T13:10:08.301Z,25.73
2018-11-07T13:11:43.209Z,20.97
2018-11-07T13:13:18.145Z,24.93
2018-11-07T13:14:53.047Z,23.07
2018-11-07T13:16:28.025Z,18.80
2018-11-07T13:18:02.948Z,22.03
2018-11-07T13:19:37.938Z,22.67
2018-11-07T13:21:12.843Z,24.60
2018-11-07T13:22:49.161Z,21.83
2018-11-07T13:24:24.088Z,23.73
2018-11-07T13:25:59.001Z,24.77
2018-11-07T13:27:33.950Z,21.00
2018-11-07T13:29:09.480Z,23.93
2018-11-07T13:30:44.442Z,20.83
2018-11-07T13:32:19.358Z,20.70
2018-11-07T13:33:54.339Z,24.23
2018-11-07T13:35:29.590Z,26.70
2018-11-07T13:37:04.653Z,20.43
2018-11-07T13:38:39.648Z,27.27
2018-11-07T13:40:16.412Z,22.87
2018-11-07T13:41:51.439Z,29.43
2018-11-07T13:43:26.367Z,25.20
2018-11-07T13:45:01.293Z,24.17
2018-11-07T13:46:36.168Z,22.30
2018-11-07T13:48:11.100Z,23.57
2018-11-07T13:49:46.247Z,21.27
2018-11-07T13:51:21.150Z,25.27
2018-11-07T13:52:56.092Z,24.43
2018-11-07T13:54:31.029Z,23.07
2018-11-07T13:56:05.955Z,26.97
2018-11-07T13:57:41.303Z,22.00
2018-11-07T13:59:16.393Z,27.40
2018-11-07T14:00:51.475Z,22.40
2018-11-07T14:02:26.597Z,63.50
2018-11-07T14:04:01.503Z,29.50
2018-11-07T14:05:36.461Z,22.33
2018-11-07T14:07:11.296Z,29.67
2018-11-07T14:08:46.290Z,25.07
2018-11-07T14:10:23.435Z,25.53
2018-11-07T14:11:58.435Z,23.67
2018-11-07T14:13:33.327Z,23.30
2018-11-07T14:15:10.148Z,23.10
2018-11-07T14:16:45.279Z,27.47
2018-11-07T14:18:20.197Z,23.63
2018-11-07T14:19:55.087Z,26.83
2018-11-07T14:21:29.995Z,25.90
2018-11-07T14:23:04.917Z,25.20
2018-11-07T14:24:39.874Z,25.43
2018-11-07T14:26:14.896Z,21.13
2018-11-07T14:27:49.786Z,26.03
2018-11-07T14:29:24.660Z,25.43
2018-11-07T14:30:59.566Z,23.33
2018-11-07T14:32:34.519Z,22.33
2018-11-07T14:34:09.983Z,24.80
2018-11-07T14:35:45.099Z,25.07
2018-11-07T14:37:20.700Z,22.77
2018-11-07T14:38:55.749Z,24.47
2018-11-07T14:40:30.630Z,28.63
2018-11-07T14:42:05.906Z,42.17
2018-11-07T14:43:40.802Z,45.03
2018-11-07T14:45:15.708Z,33.27
2018-11-07T14:46:50.818Z,34.53
2018-11-07T14:48:25.708Z,33.20
2018-11-07T14:50:00.614Z,43.87
2018-11-07T14:51:35.504Z,27.57
2018-11-07T14:53:10.410Z,30.07
2018-11-07T14:54:45.318Z,24.73
2018-11-07T14:56:20.226Z,39.13
2018-11-07T14:57:55.147Z,27.37
2018-11-07T14:59:30.110Z,29.43
2018-11-07T15:01:05.043Z,27.37
2018-11-07T15:02:40.630Z,31.63
2018-11-07T15:04:15.516Z,27.57
2018-11-07T15:05:50.486Z,32.50
2018-11-07T15:07:25.394Z,27.27
2018-11-07T15:09:00.290Z,23.93
2018-11-07T15:10:35.176Z,30.53
2018-11-07T15:12:10.095Z,29.47
2018-11-07T15:13:45.096Z,27.93
2018-11-07T15:15:20.239Z,35.30
2018-11-07T15:16:55.566Z,30.60
2018-11-07T15:18:30.598Z,28.60
2018-11-07T15:20:06.235Z,33.03
2018-11-07T15:21:41.218Z,31.57
2018-11-07T15:23:16.128Z,33.77
2018-11-07T15:24:51.188Z,26.53
2018-11-07T15:26:26.011Z,31.63
2018-11-07T15:28:00.916Z,31.00
2018-11-07T15:29:35.893Z,39.03
2018-11-07T15:31:10.918Z,29.57
2018-11-07T15:32:46.131Z,28.90
2018-11-07T15:34:21.016Z,30.27
2018-11-07T15:35:55.999Z,33.57
2018-11-07T15:37:30.889Z,31.13
2018-11-07T15:39:07.999Z,34.63
2018-11-07T15:40:42.932Z,32.53
2018-11-07T15:42:17.835Z,34.33
2018-11-07T15:43:52.716Z,37.70
2018-11-07T15:45:27.608Z,35.13
2018-11-07T15:47:02.594Z,33.30
2018-11-07T15:48:37.458Z,37.20
2018-11-07T15:50:17.771Z,34.10
2018-11-07T15:51:55.475Z,30.57
2018-11-07T15:53:30.178Z,33.03
2018-11-07T15:55:05.677Z,34.70
2018-11-07T15:56:40.714Z,30.43
2018-11-07T15:58:15.581Z,33.63
2018-11-07T15:59:50.484Z,34.87
2018-11-07T16:01:25.522Z,34.57
2018-11-07T16:03:00.606Z,27.90
2018-11-07T16:04:35.500Z,27.17
2018-11-07T16:06:10.584Z,40.27
2018-11-07T16:07:45.445Z,29.67
2018-11-07T16:09:20.391Z,35.10
2018-11-07T16:10:55.299Z,30.57
2018-11-07T16:12:30.183Z,31.67
2018-11-07T16:14:05.362Z,31.40
2018-11-07T16:15:40.614Z,34.17
2018-11-07T16:17:15.417Z,32.37
2018-11-07T16:18:50.334Z,31.30
2018-11-07T16:20:25.474Z,35.23
2018-11-07T16:22:00.503Z,29.53
2018-11-07T16:23:35.454Z,34.97
2018-11-07T16:25:10.485Z,30.60
2018-11-07T16:26:45.588Z,33.67
2018-11-07T16:28:20.627Z,42.63
2018-11-07T16:29:55.541Z,32.10
2018-11-07T16:31:30.548Z,31.73
2018-11-07T16:33:05.738Z,33.73
2018-11-07T16:34:40.710Z,34.10
2018-11-07T16:36:15.723Z,36.60
2018-11-07T16:37:50.730Z,39.37
2018-11-07T16:39:25.562Z,35.23
2018-11-07T16:41:00.709Z,29.60
2018-11-07T16:42:35.610Z,35.90
2018-11-07T16:44:10.456Z,38.47
2018-11-07T16:45:45.430Z,38.47
2018-11-07T16:47:20.397Z,33.03
2018-11-07T16:48:55.246Z,34.23
2018-11-07T16:50:30.222Z,35.33
2018-11-07T16:52:05.322Z,32.17
2018-11-07T16:53:40.329Z,32.60
2018-11-07T16:55:15.556Z,36.20
2018-11-07T16:56:50.826Z,35.50
2018-11-07T16:58:25.724Z,36.53
2018-11-07T17:00:00.758Z,35.90
2018-11-07T17:01:35.652Z,32.70
2018-11-07T17:03:10.550Z,35.07
2018-11-07T17:04:45.499Z,35.47
2018-11-07T17:06:20.561Z,44.50
2018-11-07T17:07:55.451Z,37.33
2018-11-07T17:09:30.395Z,36.00
2018-11-07T17:11:05.876Z,39.90
2018-11-07T17:12:40.947Z,34.23
2018-11-07T17:14:15.856Z,37.27
2018-11-07T17:15:50.902Z,35.07
2018-11-07T17:17:25.854Z,37.67
2018-11-07T17:19:00.729Z,38.80
2018-11-07T17:20:35.628Z,40.70
2018-11-07T17:22:10.545Z,42.37
2018-11-07T17:23:45.450Z,41.73
2018-11-07T17:25:20.687Z,41.10
2018-11-07T17:26:55.620Z,38.07
2018-11-07T17:28:30.526Z,43.40
2018-11-07T17:30:06.675Z,48.37
2018-11-07T17:31:42.496Z,41.97
2018-11-07T17:33:17.363Z,41.77
2018-11-07T17:34:53.141Z,36.63
2018-11-07T17:36:28.176Z,31.23
2018-11-07T17:38:03.196Z,37.80
2018-11-07T17:39:38.192Z,33.50
2018-11-07T17:41:13.426Z,38.70
2018-11-07T17:42:48.566Z,34.90
2018-11-07T17:44:23.582Z,35.53
2018-11-07T17:45:58.631Z,40.27
2018-11-07T17:47:33.639Z,36.87
2018-11-07T17:49:08.595Z,35.07
2018-11-07T17:50:43.526Z,34.83
2018-11-07T17:52:18.583Z,36.63
2018-11-07T17:53:53.521Z,34.53
2018-11-07T17:55:28.402Z,39.13
2018-11-07T17:57:04.822Z,41.00
2018-11-07T17:58:40.373Z,39.77
2018-11-07T18:00:26.474Z,42.57
2018-11-07T18:02:01.482Z,39.20
2018-11-07T18:03:36.566Z,38.37
2018-11-07T18:05:11.432Z,39.33
2018-11-07T18:06:46.598Z,40.77
2018-11-07T18:08:21.522Z,38.40
2018-11-07T18:09:56.591Z,36.73
2018-11-07T18:11:31.549Z,39.37
2018-11-07T18:13:06.475Z,45.00
2018-11-07T18:14:41.489Z,41.40
2018-11-07T18:16:16.435Z,44.43
2018-11-07T18:17:51.454Z,37.93
2018-11-07T18:19:26.682Z,37.17
2018-11-07T18:21:01.823Z,42.90
2018-11-07T18:22:36.846Z,40.93
2018-11-07T18:24:11.872Z,39.47
2018-11-07T18:25:46.944Z,44.27
2018-11-07T18:27:21.973Z,44.23
2018-11-07T18:28:56.773Z,45.17
2018-11-07T18:30:31.667Z,42.87
2018-11-07T18:32:06.654Z,40.60
2018-11-07T18:33:41.564Z,48.07
2018-11-07T18:35:20.639Z,44.13
2018-11-07T18:36:55.519Z,47.93
2018-11-07T18:38:30.419Z,44.50
2018-11-07T18:40:07.215Z,48.93
2018-11-07T18:41:42.139Z,44.53
2018-11-07T18:43:17.201Z,45.17
2018-11-07T18:44:51.998Z,45.70
2018-11-07T18:46:26.888Z,41.93
2018-11-07T18:48:01.807Z,43.87
2018-11-07T18:49:36.670Z,43.90
2018-11-07T18:51:11.588Z,50.80
2018-11-07T18:52:46.579Z,42.80
2018-11-07T18:54:21.548Z,47.23
2018-11-07T18:55:56.473Z,37.57
2018-11-07T18:57:31.421Z,39.70
2018-11-07T18:59:06.418Z,40.00
2018-11-07T19:00:41.298Z,41.43
2018-11-07T19:02:16.267Z,44.97
2018-11-07T19:03:51.159Z,52.27
2018-11-07T19:05:26.087Z,54.60
2018-11-07T19:07:01.310Z,46.13
2018-11-07T19:08:36.230Z,42.37
2018-11-07T19:10:15.009Z,44.70
2018-11-07T19:11:49.907Z,44.97
2018-11-07T19:13:24.921Z,50.30
2018-11-07T19:14:59.850Z,43.27
2018-11-07T19:16:34.943Z,50.07
2018-11-07T19:18:09.899Z,49.23
2018-11-07T19:19:44.815Z,46.20
2018-11-07T19:21:19.716Z,45.63
2018-11-07T19:22:54.678Z,48.00
2018-11-07T19:24:29.615Z,51.70
2018-11-07T19:26:04.802Z,51.83
2018-11-07T19:27:39.955Z,51.23
2018-11-07T19:29:14.827Z,50.87
2018-11-07T19:30:49.734Z,49.37
2018-11-07T19:32:24.659Z,41.93
2018-11-07T19:33:59.664Z,50.83
2018-11-07T19:35:34.590Z,44.50
2018-11-07T19:37:09.594Z,45.77
2018-11-07T19:38:44.519Z,46.30
2018-11-07T19:40:23.918Z,48.07
2018-11-07T19:41:59.046Z,46.37
2018-11-07T19:43:35.060Z,42.43
2018-11-07T19:45:17.895Z,46.10
2018-11-07T19:46:52.893Z,43.40
2018-11-07T19:48:27.835Z,41.63
2018-11-07T19:50:02.761Z,41.37
2018-11-07T19:51:37.856Z,42.67
2018-11-07T19:53:12.895Z,42.60
2018-11-07T19:54:47.935Z,49.77
2018-11-07T19:56:22.867Z,45.50
2018-11-07T19:58:00.402Z,42.23
2018-11-07T19:59:35.390Z,44.33
2018-11-07T20:01:10.324Z,42.27
2018-11-07T20:02:45.970Z,46.77
2018-11-07T20:04:21.023Z,43.53
2018-11-07T20:05:56.027Z,53.77
2018-11-07T20:07:30.951Z,44.50
2018-11-07T20:09:08.612Z,51.10
2018-11-07T20:10:43.568Z,41.70
2018-11-07T20:12:18.491Z,43.27
2018-11-07T20:13:53.523Z,48.40
2018-11-07T20:15:28.459Z,44.50
2018-11-07T20:17:03.383Z,34.97
2018-11-07T20:18:38.991Z,40.83
2018-11-07T20:20:14.386Z,43.23
2018-11-07T20:21:49.675Z,40.23
2018-11-07T20:23:24.656Z,44.07
2018-11-07T20:24:59.640Z,55.30
2018-11-07T20:26:34.565Z,40.20